createdAt,value
2022-08-19T00:02:50.001Z,12.57
2022-08-19T00:05:52.711Z,11.80
2022-08-19T00:08:55.182Z,11.45
2022-08-19T00:11:58.820Z,11.52
2022-08-19T00:15:01.088Z,12.65
2022-08-19T00:18:03.412Z,11.60
2022-08-19T00:21:09.738Z,14.63
2022-08-19T00:24:14.480Z,11.55
2022-08-19T00:27:25.561Z,11.52
2022-08-19T00:30:29.479Z,13.93
2022-08-19T00:33:35.002Z,13.10
2022-08-19T00:36:38.016Z,12.23
2022-08-19T00:39:40.221Z,12.60
2022-08-19T00:42:42.949Z,13.77
2022-08-19T00:45:46.779Z,12.80
2022-08-19T00:48:48.976Z,16.43
2022-08-19T00:51:53.646Z,14.23
2022-08-19T00:54:58.021Z,14.05
2022-08-19T00:58:10.191Z,13.38
2022-08-19T01:01:13.292Z,12.57
2022-08-19T01:04:16.465Z,13.83
2022-08-19T01:07:20.068Z,13.00
2022-08-19T01:10:26.548Z,13.40
2022-08-19T01:13:44.530Z,13.90
2022-08-19T01:16:58.120Z,15.32
2022-08-19T01:20:01.627Z,12.77
2022-08-19T01:23:05.133Z,11.07
2022-08-19T01:26:08.143Z,14.23
2022-08-19T01:29:11.727Z,12.18
2022-08-19T01:32:33.198Z,13.48
2022-08-19T01:35:36.683Z,13.60
2022-08-19T01:38:44.514Z,11.77
2022-08-19T01:41:47.787Z,15.70
2022-08-19T01:44:49.993Z,18.33
2022-08-19T01:48:01.556Z,13.45
2022-08-19T01:51:04.730Z,12.50
2022-08-19T01:54:09.224Z,14.43
2022-08-19T01:57:14.437Z,14.88
2022-08-19T02:00:20.500Z,14.10
2022-08-19T02:03:24.312Z,14.07
2022-08-19T02:06:27.819Z,13.93
2022-08-19T02:09:32.651Z,13.63
2022-08-19T02:12:35.645Z,15.40
2022-08-19T02:15:41.193Z,13.35
2022-08-19T02:18:44.188Z,14.80
2022-08-19T02:21:46.568Z,14.20
2022-08-19T02:24:49.008Z,12.67
2022-08-19T02:27:53.106Z,14.52
2022-08-19T02:30:56.809Z,13.93
2022-08-19T02:33:59.147Z,15.20
2022-08-19T02:37:03.738Z,14.43
2022-08-19T02:40:12.332Z,14.40
2022-08-19T02:43:14.970Z,12.73
2022-08-19T02:46:22.050Z,15.27
2022-08-19T02:49:24.664Z,13.75
2022-08-19T02:52:28.403Z,13.80
2022-08-19T02:55:31.164Z,12.87
2022-08-19T02:58:49.720Z,12.93
2022-08-19T03:01:54.371Z,14.88
2022-08-19T03:04:56.573Z,14.20
2022-08-19T03:07:58.780Z,14.27
2022-08-19T03:11:01.003Z,15.17
2022-08-19T03:14:04.676Z,14.95
2022-08-19T03:17:07.431Z,13.23
2022-08-19T03:20:10.018Z,14.15
2022-08-19T03:23:16.297Z,15.60
2022-08-19T03:26:18.534Z,13.30
2022-08-19T03:29:30.341Z,14.45
2022-08-19T03:32:33.436Z,12.82
2022-08-19T03:35:37.732Z,13.18
2022-08-19T03:38:44.969Z,14.77
2022-08-19T03:41:50.027Z,14.77
2022-08-19T03:45:12.258Z,12.45
2022-08-19T03:48:14.477Z,14.07
2022-08-19T03:51:20.670Z,14.57
2022-08-19T03:54:33.129Z,14.13
2022-08-19T03:57:35.697Z,15.97
2022-08-19T04:00:38.329Z,18.40
2022-08-19T04:03:41.336Z,18.33
2022-08-19T04:06:44.490Z,13.07
2022-08-19T04:09:46.758Z,14.03
2022-08-19T04:12:48.962Z,14.00
2022-08-19T04:15:51.192Z,12.15
2022-08-19T04:18:53.377Z,13.63
2022-08-19T04:21:56.355Z,14.07
2022-08-19T04:24:58.567Z,14.50
2022-08-19T04:28:01.458Z,12.70
2022-08-19T04:31:04.552Z,15.73
2022-08-19T04:34:09.492Z,14.07
2022-08-19T04:37:14.014Z,12.63
2022-08-19T04:40:37.595Z,11.70
2022-08-19T04:43:40.696Z,12.57
2022-08-19T04:46:51.188Z,15.68
2022-08-19T04:49:54.857Z,12.15
2022-08-19T04:53:00.714Z,13.25
2022-08-19T04:56:09.040Z,13.07
2022-08-19T04:59:12.124Z,14.23
2022-08-19T05:02:15.223Z,14.57
2022-08-19T05:05:18.625Z,13.02
2022-08-19T05:08:31.340Z,12.38
2022-08-19T05:11:40.365Z,14.10
2022-08-19T05:14:43.569Z,12.90
2022-08-19T05:18:06.632Z,15.57
2022-08-19T05:21:31.235Z,15.60
2022-08-19T05:24:41.334Z,13.98
2022-08-19T05:27:53.671Z,14.20
2022-08-19T05:30:56.582Z,13.57
2022-08-19T05:33:59.601Z,13.52
2022-08-19T05:37:02.836Z,12.98
2022-08-19T05:40:05.470Z,12.23
2022-08-19T05:43:09.290Z,13.43
2022-08-19T05:46:19.180Z,11.50
2022-08-19T05:49:30.387Z,14.43
2022-08-19T05:52:33.576Z,13.93
2022-08-19T05:55:36.348Z,12.30
2022-08-19T05:58:39.146Z,11.23
2022-08-19T06:01:43.443Z,12.37
2022-08-19T06:04:45.711Z,9.60
2022-08-19T06:07:48.068Z,10.07
2022-08-19T06:10:50.307Z,11.68
2022-08-19T06:13:59.363Z,11.53
2022-08-19T06:17:06.757Z,9.67
2022-08-19T06:20:13.013Z,11.82
2022-08-19T06:23:16.170Z,10.80
2022-08-19T06:26:20.610Z,10.45
2022-08-19T06:29:25.998Z,10.47
2022-08-19T06:32:28.238Z,10.73
2022-08-19T06:35:30.619Z,9.55
2022-08-19T06:38:34.480Z,9.75
2022-08-19T06:41:45.835Z,12.30
2022-08-19T06:44:53.707Z,9.63
2022-08-19T06:47:57.102Z,9.87
2022-08-19T06:50:59.372Z,9.65
2022-08-19T06:54:03.892Z,10.20
2022-08-19T06:57:07.838Z,9.77
2022-08-19T07:00:14.884Z,9.33
2022-08-19T07:03:18.025Z,8.63
2022-08-19T07:09:45.555Z,8.50
2022-08-19T07:13:00.639Z,11.13
2022-08-19T07:16:14.854Z,10.73
2022-08-19T07:19:32.729Z,10.87
2022-08-19T07:22:36.650Z,10.18
2022-08-19T07:25:40.644Z,9.50
2022-08-19T07:28:51.453Z,10.50
2022-08-19T07:31:57.425Z,11.17
2022-08-19T07:35:04.310Z,9.70
2022-08-19T07:38:06.932Z,9.98
2022-08-19T07:41:14.272Z,10.63
2022-08-19T07:44:16.840Z,7.70
2022-08-19T07:47:48.255Z,9.10
2022-08-19T07:50:41.746Z,12.70
2022-08-19T07:53:45.877Z,8.68
2022-08-19T07:56:48.096Z,9.48
2022-08-19T07:59:50.917Z,9.18
2022-08-19T08:02:55.741Z,9.97
2022-08-19T08:06:16.937Z,7.73
2022-08-19T08:09:24.464Z,7.05
2022-08-19T08:12:35.149Z,7.82
2022-08-19T08:15:42.876Z,7.68
2022-08-19T08:18:50.510Z,8.67
2022-08-19T08:22:00.282Z,9.47
2022-08-19T08:25:09.265Z,8.18
2022-08-19T08:28:17.693Z,8.50
2022-08-19T08:31:21.143Z,8.48
2022-08-19T08:34:23.549Z,8.13
2022-08-19T08:37:26.497Z,8.70
2022-08-19T08:40:41.670Z,10.88
2022-08-19T08:43:48.252Z,7.05
2022-08-19T08:46:55.337Z,6.82
2022-08-19T08:50:07.339Z,7.53
2022-08-19T08:53:12.584Z,7.20
2022-08-19T08:56:17.030Z,8.35
2022-08-19T08:59:42.732Z,9.40
2022-08-19T09:02:50.410Z,6.63
2022-08-19T09:06:12.018Z,6.97
2022-08-19T09:09:21.541Z,7.40
2022-08-19T09:12:39.334Z,10.50
2022-08-19T09:15:49.477Z,7.68
2022-08-19T09:18:54.584Z,7.38
2022-08-19T09:21:57.044Z,7.80
2022-08-19T09:24:59.538Z,8.10
2022-08-19T09:28:22.488Z,7.20
2022-08-19T09:31:30.577Z,7.22
2022-08-19T09:34:37.998Z,6.57
2022-08-19T09:37:46.226Z,8.13
2022-08-19T09:40:50.107Z,7.30
2022-08-19T09:43:56.975Z,9.18
2022-08-19T09:46:59.125Z,7.90
2022-08-19T09:50:01.979Z,7.90
2022-08-19T09:53:05.059Z,7.13
2022-08-19T09:56:10.186Z,6.57
2022-08-19T09:59:13.485Z,8.40
2022-08-19T10:02:16.579Z,8.70
2022-08-19T10:05:44.456Z,8.30
2022-08-19T10:08:50.022Z,7.87
2022-08-19T10:11:54.530Z,7.80
2022-08-19T10:14:58.034Z,7.07
2022-08-19T10:18:01.135Z,7.55
2022-08-19T10:21:11.860Z,9.05
2022-08-19T10:24:14.371Z,7.43
2022-08-19T10:27:20.834Z,10.03
2022-08-19T10:30:23.207Z,8.05
2022-08-19T10:33:40.945Z,7.22
2022-08-19T10:36:56.094Z,8.80
2022-08-19T10:39:59.124Z,8.23
2022-08-19T10:43:01.362Z,6.73
2022-08-19T10:46:04.867Z,7.63
2022-08-19T10:49:12.582Z,9.48
2022-08-19T10:52:33.108Z,10.70
2022-08-19T10:55:54.708Z,8.03
2022-08-19T10:59:00.052Z,7.57
2022-08-19T11:02:04.817Z,8.15
2022-08-19T11:05:12.680Z,8.02
2022-08-19T11:08:23.894Z,8.75
2022-08-19T11:11:27.177Z,7.53
2022-08-19T11:14:32.150Z,9.53
2022-08-19T11:17:37.003Z,7.38
2022-08-19T11:20:40.015Z,8.25
2022-08-19T11:23:43.107Z,7.35
2022-08-19T11:26:46.713Z,7.77
2022-08-19T11:29:49.809Z,7.67
2022-08-19T11:32:53.115Z,10.70
2022-08-19T11:35:59.989Z,7.97
2022-08-19T11:39:04.620Z,7.47
2022-08-19T11:42:27.919Z,7.90
2022-08-19T11:45:31.226Z,6.83
2022-08-19T11:48:33.606Z,9.57
2022-08-19T11:51:36.323Z,9.43
2022-08-19T11:54:41.045Z,8.63
2022-08-19T11:57:44.619Z,8.90
2022-08-19T12:00:46.995Z,8.23
2022-08-19T12:03:51.317Z,8.15
2022-08-19T12:06:54.073Z,6.65
2022-08-19T12:09:56.307Z,8.45
2022-08-19T12:12:58.858Z,7.43
2022-08-19T12:16:03.468Z,9.37
2022-08-19T12:19:06.565Z,8.82
2022-08-19T12:22:10.037Z,9.25
2022-08-19T12:25:13.165Z,10.15
2022-08-19T12:28:16.097Z,8.33
2022-08-19T12:31:20.496Z,9.50
2022-08-19T12:34:22.932Z,10.95
2022-08-19T12:37:28.703Z,8.63
2022-08-19T12:40:33.839Z,8.88
2022-08-19T12:43:36.064Z,9.37
2022-08-19T12:46:38.245Z,8.50
2022-08-19T12:49:53.365Z,8.45
2022-08-19T12:52:59.152Z,8.30
2022-08-19T12:56:01.500Z,10.25
2022-08-19T12:59:05.028Z,8.47
2022-08-19T13:02:08.443Z,7.73
2022-08-19T13:05:14.681Z,8.10
2022-08-19T13:08:18.293Z,8.05
2022-08-19T13:11:21.985Z,10.15
2022-08-19T13:14:24.189Z,9.37
2022-08-19T13:17:26.577Z,11.30
2022-08-19T13:20:29.121Z,9.88
2022-08-19T13:23:31.849Z,11.18
2022-08-19T13:26:34.075Z,10.38
2022-08-19T13:29:54.848Z,10.10
2022-08-19T13:33:17.304Z,11.53
2022-08-19T13:36:19.516Z,12.38
2022-08-19T13:39:23.993Z,13.43
2022-08-19T13:42:26.268Z,13.20
2022-08-19T13:45:30.514Z,13.07
2022-08-19T13:48:33.285Z,15.97
2022-08-19T13:51:35.876Z,15.50
2022-08-19T13:54:38.071Z,13.75
2022-08-19T13:57:40.337Z,14.32
2022-08-19T14:00:46.212Z,13.17
2022-08-19T14:03:48.890Z,16.43
2022-08-19T14:06:51.041Z,14.70
2022-08-19T14:09:53.204Z,14.93
2022-08-19T14:12:57.156Z,15.57
2022-08-19T14:15:59.356Z,11.60
2022-08-19T14:19:01.978Z,17.17
2022-08-19T14:22:04.567Z,15.75
2022-08-19T14:25:14.741Z,14.73
2022-08-19T14:28:18.843Z,12.43
2022-08-19T14:31:22.411Z,12.60
2022-08-19T14:34:25.173Z,8.37
2022-08-19T14:37:28.161Z,11.45
2022-08-19T14:40:33.713Z,12.38
2022-08-19T14:43:36.806Z,12.50
2022-08-19T14:46:40.313Z,10.80
2022-08-19T14:49:52.420Z,15.67
2022-08-19T14:53:11.884Z,13.27
2022-08-19T14:56:17.551Z,10.40
2022-08-19T14:59:21.150Z,8.90
2022-08-19T15:02:34.852Z,10.13
2022-08-19T15:05:38.405Z,14.43
2022-08-19T15:08:42.721Z,10.05
2022-08-19T15:11:45.166Z,9.90
2022-08-19T15:14:51.131Z,8.82
2022-08-19T15:17:57.443Z,10.60
2022-08-19T15:21:00.710Z,9.47
2022-08-19T15:24:03.612Z,9.63
2022-08-19T15:27:06.922Z,9.43
2022-08-19T15:30:10.633Z,11.50
2022-08-19T15:33:20.760Z,9.63
2022-08-19T15:36:24.384Z,10.90
2022-08-19T15:39:26.779Z,9.23
2022-08-19T15:42:29.932Z,12.90
2022-08-19T15:45:33.043Z,7.32
2022-08-19T15:48:35.266Z,11.23
2022-08-19T15:51:39.388Z,10.37
2022-08-19T15:54:41.646Z,10.50
2022-08-19T15:58:02.506Z,9.02
2022-08-19T16:01:26.870Z,9.57
2022-08-19T16:04:48.032Z,9.77
2022-08-19T16:07:51.054Z,8.40
2022-08-19T16:10:55.078Z,9.85
2022-08-19T16:13:59.175Z,8.70
2022-08-19T16:17:01.984Z,10.82
2022-08-19T16:20:05.913Z,8.87
2022-08-19T16:23:08.168Z,7.27
2022-08-19T16:26:10.377Z,11.13
2022-08-19T16:29:13.815Z,9.82
2022-08-19T16:32:16.425Z,9.57
2022-08-19T16:35:18.612Z,9.80
2022-08-19T16:38:21.934Z,9.27
2022-08-19T16:41:24.559Z,10.43
2022-08-19T16:44:29.721Z,15.20
2022-08-19T16:47:32.251Z,10.23
2022-08-19T16:50:48.661Z,10.03
2022-08-19T16:53:54.006Z,9.63
2022-08-19T16:56:56.588Z,10.05
2022-08-19T16:59:59.075Z,11.27
2022-08-19T17:03:14.342Z,6.85
2022-08-19T17:06:26.109Z,9.30
2022-08-19T17:09:30.856Z,13.13
2022-08-19T17:12:35.130Z,9.27
2022-08-19T17:15:38.348Z,6.95
2022-08-19T17:18:40.586Z,7.00
2022-08-19T17:21:43.668Z,7.80
2022-08-19T17:24:46.229Z,10.87
2022-08-19T17:27:49.201Z,6.90
2022-08-19T17:30:52.213Z,8.07
2022-08-19T17:33:55.228Z,11.48
2022-08-19T17:36:58.507Z,10.23
2022-08-19T17:40:04.429Z,9.17
2022-08-19T17:43:08.380Z,9.20
2022-08-19T17:46:17.967Z,12.88
2022-08-19T17:49:21.628Z,15.20
2022-08-19T17:52:25.340Z,12.20
2022-08-19T17:55:30.408Z,10.77
2022-08-19T17:58:32.750Z,11.05
2022-08-19T18:01:52.180Z,11.27
2022-08-19T18:04:55.953Z,10.48
2022-08-19T18:07:59.885Z,11.63
2022-08-19T18:11:02.217Z,10.30
2022-08-19T18:14:05.365Z,8.50
2022-08-19T18:17:12.647Z,14.68
2022-08-19T18:20:16.795Z,9.27
2022-08-19T18:23:41.502Z,13.10
2022-08-19T18:26:42.870Z,10.67
2022-08-19T18:29:46.104Z,11.77
2022-08-19T18:32:52.489Z,12.57
2022-08-19T18:35:54.752Z,8.27
2022-08-19T18:39:15.843Z,11.50
2022-08-19T18:42:37.126Z,9.53
2022-08-19T18:45:59.167Z,12.43
2022-08-19T18:49:05.180Z,8.48
2022-08-19T18:52:07.689Z,11.52
2022-08-19T18:55:10.132Z,9.33
2022-08-19T18:58:12.331Z,9.60
2022-08-19T19:01:21.145Z,9.27
2022-08-19T19:04:29.857Z,11.45
2022-08-19T19:07:32.680Z,11.45
2022-08-19T19:10:36.321Z,13.00
2022-08-19T19:13:40.546Z,11.00
2022-08-19T19:16:46.141Z,11.45
2022-08-19T19:19:49.458Z,11.30
2022-08-19T19:22:52.035Z,12.70
2022-08-19T19:25:58.620Z,12.43
2022-08-19T19:29:00.915Z,10.03
2022-08-19T19:32:08.449Z,11.20
2022-08-19T19:35:10.846Z,9.13
2022-08-19T19:38:13.210Z,10.40
2022-08-19T19:41:17.889Z,7.53
2022-08-19T19:44:30.560Z,8.10
2022-08-19T19:47:33.770Z,9.15
2022-08-19T19:50:36.550Z,8.23
2022-08-19T19:53:39.149Z,10.43
2022-08-19T19:56:45.550Z,9.27
2022-08-19T19:59:51.460Z,8.00
2022-08-19T20:02:56.155Z,10.88
2022-08-19T20:05:59.416Z,14.27
2022-08-19T20:09:08.258Z,14.07
2022-08-19T20:12:10.514Z,13.70
2022-08-19T20:15:13.960Z,13.33
2022-08-19T20:18:16.162Z,11.60
2022-08-19T20:21:18.429Z,11.20
2022-08-19T20:24:34.840Z,12.13
2022-08-19T20:27:39.939Z,9.57
2022-08-19T20:30:47.968Z,13.93
2022-08-19T20:33:50.507Z,13.05
2022-08-19T20:36:52.869Z,13.88
2022-08-19T20:39:57.412Z,13.27
2022-08-19T20:42:59.991Z,14.57
2022-08-19T20:46:02.742Z,14.93
2022-08-19T20:49:05.889Z,16.63
2022-08-19T20:52:08.287Z,16.00
2022-08-19T20:55:11.578Z,18.63
2022-08-19T20:58:13.853Z,19.77
2022-08-19T21:01:16.483Z,19.60
2022-08-19T21:04:22.524Z,20.75
2022-08-19T21:07:24.790Z,25.13
2022-08-19T21:10:42.471Z,21.63
2022-08-19T21:13:44.787Z,19.07
2022-08-19T21:16:47.193Z,24.70
2022-08-19T21:19:49.456Z,22.70
2022-08-19T21:22:51.676Z,22.27
2022-08-19T21:25:57.129Z,21.40
2022-08-19T21:28:59.439Z,21.60
2022-08-19T21:32:01.681Z,25.97
2022-08-19T21:35:04.393Z,24.38
2022-08-19T21:38:06.624Z,23.92
2022-08-19T21:41:08.830Z,22.08
2022-08-19T21:44:11.128Z,23.90
2022-08-19T21:47:13.369Z,20.17
2022-08-19T21:50:15.711Z,25.23
2022-08-19T21:53:18.882Z,24.15
2022-08-19T21:56:21.485Z,25.65
2022-08-19T21:59:23.662Z,23.90
2022-08-19T22:02:26.150Z,22.40
2022-08-19T22:05:28.513Z,21.65
2022-08-19T22:08:31.390Z,19.13
2022-08-19T22:11:34.631Z,20.45
2022-08-19T22:14:38.121Z,19.63
2022-08-19T22:17:40.909Z,19.57
2022-08-19T22:20:44.733Z,23.08
2022-08-19T22:23:47.869Z,22.08
2022-08-19T22:26:51.586Z,22.13
2022-08-19T22:29:53.838Z,23.93
2022-08-19T22:33:01.417Z,22.93
2022-08-19T22:36:07.581Z,22.00
2022-08-19T22:39:09.981Z,26.58
2022-08-19T22:42:12.251Z,24.33
2022-08-19T22:45:17.129Z,25.37
2022-08-19T22:48:21.959Z,27.27
2022-08-19T22:51:42.946Z,29.63
2022-08-19T22:54:51.248Z,27.70
2022-08-19T22:57:54.434Z,25.48
2022-08-19T23:00:58.043Z,27.90
2022-08-19T23:04:00.303Z,26.00
2022-08-19T23:07:06.299Z,28.15
2022-08-19T23:10:10.168Z,24.55
2022-08-19T23:13:12.429Z,28.13
2022-08-19T23:16:14.664Z,26.27
2022-08-19T23:19:17.359Z,24.87
2022-08-19T23:22:19.663Z,25.65
2022-08-19T23:25:29.728Z,21.70
2022-08-19T23:28:50.128Z,22.63
2022-08-19T23:31:52.396Z,22.87
2022-08-19T23:34:56.418Z,24.47
2022-08-19T23:38:03.505Z,23.58
2022-08-19T23:41:08.630Z,22.90
2022-08-19T23:44:14.528Z,21.58
2022-08-19T23:47:17.396Z,22.27
2022-08-19T23:50:20.285Z,22.03
2022-08-19T23:53:23.196Z,21.52
2022-08-19T23:56:25.365Z,24.67
2022-08-19T23:59:27.578Z,26.13
